Hauptseite
METAR-TAF:

METAR-TAF

Flughäfen :

Flughafen Dakar-Léopold Sédar Senghor

Dakar, Senegal

Breite: 14-44N, Länge: 017-30W, Höhe: 27 m

Beobachtung

Neuester Wetterbericht von vor 2 Stunden und 44 Minuten, um 00:00 UTC
Wind 6 kt aus Nord
Temperatur 21°C
Luftfeuchtigkeit 83%
Luftdruck 1012 hPa
Sichtweite: 4500 m
verbreitet Staub

METAR: GOOY 200000Z 36006KT 4500 DU NSC 21/18 Q1012

Zeit: 02:44 (02:44 UTC)

Prognose

Neuester Wetterbericht von vor 3 Stunden und 14 Minuten, um 23:30 UTC
Gültige Prognose vom 20 um 00 UTC bis 21 um 06 UTC
Wind 8 kt aus Nord
Sichtweite: 6000 m

TAF: GOOY 192330Z 2000/2106 01008KT 6000 NSC

Wetterbeobachtungen und Prognosen von mehr als 4000 Flughäfen (METAR und TAF Bericht).

Die verfügbaren Stationen werden durch gelbe und rote Markierungen auf der Karte dargestellt.

Führen Sie die Maus auf sie, um den Namen der Station zu sehen.

Darauf klicken, um die Beobachtung von Wetterbeobachtungen und Prognosen zu sehen.

Um die Karte zu ändern : klicken Sie auf den grünen Tasten mit einem schwarzen Kreuz Zum Vergrößern, auf den grünen Button mit einem Gedankenstrich zu verkleinern, oder auf die grünen Pfeile für benachbarte Karten.


METAR-TAF: